Time;durP1;ratioP1;P1;durP2;ratioP2;P2;SDS_P1;SDS_P2;PMS_P1;PMS_P2;Temp;Humidity;BMP_temperature;BMP_pressure;BME280_temperature;BME280_humidity;BME280_pressure;Samples;Min_cycle;Max_cycle;Signal;HPM_P1;HPM_P2
2024/01/23 00:00:29;;;;;;;31.80;15.33;;;2.10;99.90;;;;;;4434044;28;658500;-69
2024/01/23 00:03:16;;;;;;;24.27;13.10;;;2.10;99.90;;;;;;4461088;27;658249;-70
2024/01/23 00:06:04;;;;;;;30.40;15.23;;;2.10;99.90;;;;;;4433267;27;657562;-69
2024/01/23 00:08:52;;;;;;;31.33;14.93;;;2.20;99.90;;;;;;4463137;27;658605;-70
2024/01/23 00:11:39;;;;;;;31.00;14.75;;;2.20;99.90;;;;;;4428441;28;658308;-69
2024/01/23 00:14:28;;;;;;;30.57;15.37;;;2.30;99.90;;;;;;4443213;28;657774;-69
2024/01/23 00:17:16;;;;;;;30.03;13.73;;;2.30;99.90;;;;;;4415285;28;658141;-69
2024/01/23 00:20:04;;;;;;;25.03;12.10;;;2.30;99.90;;;;;;4442051;27;658412;-70
2024/01/23 00:22:51;;;;;;;23.60;12.53;;;2.40;99.90;;;;;;4462125;28;657608;-69
2024/01/23 00:25:38;;;;;;;31.60;15.20;;;2.40;99.90;;;;;;4437258;28;658135;-69
2024/01/23 00:28:25;;;;;;;33.20;14.13;;;2.30;99.90;;;;;;4451738;27;658588;-70
2024/01/23 00:31:14;;;;;;;26.70;13.83;;;2.30;99.90;;;;;;4428782;27;657761;-70
2024/01/23 00:34:01;;;;;;;23.57;13.27;;;2.30;99.90;;;;;;4456429;28;658870;-69
2024/01/23 00:36:48;;;;;;;21.10;10.30;;;2.30;99.90;;;;;;4436443;28;658163;-70
2024/01/23 00:39:37;;;;;;;27.23;12.68;;;2.40;99.90;;;;;;4462563;27;657336;-69
2024/01/23 00:42:25;;;;;;;22.17;11.03;;;2.40;99.90;;;;;;4433151;28;657969;-69
2024/01/23 00:45:12;;;;;;;27.10;13.47;;;2.40;99.90;;;;;;4447909;28;658040;-70
2024/01/23 00:48:02;;;;;;;28.00;13.83;;;2.30;99.90;;;;;;4457539;28;658138;-69
2024/01/23 00:50:49;;;;;;;26.30;10.93;;;2.30;99.90;;;;;;4415753;28;658223;-69
2024/01/23 00:53:36;;;;;;;21.73;9.47;;;2.40;99.90;;;;;;4463183;28;657373;-69
2024/01/23 00:56:23;;;;;;;12.43;6.10;;;2.40;99.90;;;;;;4436307;28;656726;-69
2024/01/23 00:59:11;;;;;;;25.17;13.20;;;2.40;99.90;;;;;;4455285;28;656590;-68
2024/01/23 01:01:58;;;;;;;17.05;8.35;;;2.40;99.90;;;;;;4417853;28;657703;-69
2024/01/23 01:04:47;;;;;;;29.90;15.87;;;2.40;99.90;;;;;;4451126;28;656821;-68
2024/01/23 01:07:34;;;;;;;30.80;15.77;;;2.40;99.90;;;;;;4418550;28;658867;-69
2024/01/23 01:10:22;;;;;;;27.00;14.63;;;2.40;99.90;;;;;;4459567;28;657500;-69
2024/01/23 01:13:10;;;;;;;21.35;9.00;;;2.40;99.90;;;;;;4425887;28;657936;-69
2024/01/23 01:15:57;;;;;;;15.67;8.27;;;2.40;99.90;;;;;;4448757;28;656732;-69
2024/01/23 01:18:44;;;;;;;24.38;13.13;;;2.40;99.90;;;;;;4459062;28;657130;-69
2024/01/23 01:21:33;;;;;;;7.37;4.33;;;2.40;99.90;;;;;;4449969;28;658088;-69
2024/01/23 01:24:20;;;;;;;13.30;5.93;;;2.40;99.90;;;;;;4420819;28;656282;-69
2024/01/23 01:27:07;;;;;;;20.37;9.87;;;2.30;99.90;;;;;;4426172;28;656958;-70
2024/01/23 01:29:55;;;;;;;26.73;13.00;;;2.40;99.90;;;;;;4458625;28;657117;-69
2024/01/23 01:32:42;;;;;;;12.53;5.70;;;2.40;99.90;;;;;;4443405;28;657527;-69
2024/01/23 01:35:29;;;;;;;28.40;13.97;;;2.40;99.90;;;;;;4422116;28;657596;-70
2024/01/23 01:38:17;;;;;;;26.77;14.30;;;2.40;99.90;;;;;;4446445;28;657429;-70
2024/01/23 01:41:05;;;;;;;24.27;12.40;;;2.40;99.90;;;;;;4421506;28;658527;-69
2024/01/23 01:43:52;;;;;;;16.17;9.70;;;2.40;99.90;;;;;;4454802;28;658308;-71
2024/01/23 01:46:40;;;;;;;12.77;4.63;;;2.40;99.90;;;;;;4436692;28;656863;-70
2024/01/23 01:49:27;;;;;;;21.10;11.17;;;2.40;99.90;;;;;;4455041;28;656867;-70
2024/01/23 01:52:14;;;;;;;13.53;6.60;;;2.40;99.90;;;;;;4431616;28;658591;-70
2024/01/23 01:55:03;;;;;;;19.63;10.13;;;2.40;99.90;;;;;;4455519;28;656866;-69
2024/01/23 01:57:51;;;;;;;26.13;11.60;;;2.40;99.90;;;;;;4421327;28;658597;-70
2024/01/23 02:00:38;;;;;;;22.67;10.40;;;2.40;99.90;;;;;;4424156;28;657988;-69
2024/01/23 02:03:25;;;;;;;22.13;10.70;;;2.40;99.90;;;;;;4447905;28;659125;-69
2024/01/23 02:06:12;;;;;;;7.83;3.77;;;2.30;99.90;;;;;;4445824;28;658220;-70
2024/01/23 02:09:00;;;;;;;11.30;5.53;;;2.30;99.90;;;;;;4460596;28;655997;-69
2024/01/23 02:11:57;;;;;;;19.97;9.90;;;2.30;99.90;;;;;;4450959;28;656030;-69
2024/01/23 02:14:45;;;;;;;20.33;8.77;;;2.30;99.90;;;;;;4435254;28;656504;-69
2024/01/23 02:17:32;;;;;;;17.73;10.17;;;2.20;99.90;;;;;;4461884;27;656657;-69
2024/01/23 02:20:19;;;;;;;20.10;10.03;;;2.20;99.90;;;;;;4434861;28;659551;-70
2024/01/23 02:23:11;;;;;;;18.87;9.97;;;2.20;99.90;;;;;;4453603;28;657702;-70
2024/01/23 02:25:59;;;;;;;17.23;8.67;;;2.10;99.90;;;;;;4415273;28;656960;-70
2024/01/23 02:28:46;;;;;;;19.63;9.47;;;2.20;99.90;;;;;;4462555;28;656318;-70
2024/01/23 02:31:33;;;;;;;18.63;9.10;;;2.10;99.90;;;;;;4434472;28;656947;-70
2024/01/23 02:34:21;;;;;;;20.07;9.93;;;2.10;99.90;;;;;;4449944;27;656537;-70
2024/01/23 02:37:08;;;;;;;24.83;13.10;;;2.10;99.90;;;;;;4440854;28;656712;-69
2024/01/23 02:39:56;;;;;;;22.67;11.07;;;2.00;99.90;;;;;;4451816;28;657501;-70
2024/01/23 02:42:44;;;;;;;20.90;10.80;;;2.10;99.90;;;;;;4432026;28;658261;-70
2024/01/23 02:45:31;;;;;;;23.80;11.40;;;2.10;99.90;;;;;;4454520;28;657609;-70
2024/01/23 02:48:18;;;;;;;21.13;11.10;;;2.10;99.90;;;;;;4439885;27;657692;-70
2024/01/23 02:51:06;;;;;;;20.60;10.83;;;2.10;99.90;;;;;;4455251;28;658741;-70
2024/01/23 02:53:53;;;;;;;10.37;4.10;;;2.10;99.90;;;;;;4438290;27;658531;-70
2024/01/23 02:56:40;;;;;;;10.57;5.93;;;2.10;99.90;;;;;;4464378;27;658095;-70
2024/01/23 02:59:29;;;;;;;18.13;9.13;;;2.10;99.90;;;;;;4451633;27;657047;-71
2024/01/23 03:02:16;;;;;;;19.60;10.37;;;2.10;99.90;;;;;;4453192;28;656781;-69
2024/01/23 03:05:03;;;;;;;18.37;8.77;;;2.10;99.90;;;;;;4428993;28;657522;-70
2024/01/23 03:07:52;;;;;;;21.30;10.73;;;2.10;99.90;;;;;;4449248;28;657284;-70
2024/01/23 03:10:39;;;;;;;22.97;10.43;;;2.10;99.90;;;;;;4439667;27;658207;-70
2024/01/23 03:13:26;;;;;;;24.87;12.37;;;2.10;99.90;;;;;;4451862;28;658115;-70
2024/01/23 03:16:15;;;;;;;197.20;17.63;;;2.10;99.90;;;;;;4435711;28;657510;-70
2024/01/23 03:19:03;;;;;;;10.57;4.90;;;2.10;99.90;;;;;;4450331;28;659221;-71
2024/01/23 03:21:50;;;;;;;24.63;12.73;;;2.10;99.90;;;;;;4456368;28;658019;-70
2024/01/23 03:24:38;;;;;;;31.10;13.40;;;2.00;99.90;;;;;;4450711;28;658070;-70
2024/01/23 03:27:25;;;;;;;24.07;12.50;;;2.10;99.90;;;;;;4451804;28;657695;-70
2024/01/23 03:30:28;;;;;;;14.63;7.03;;;2.10;99.90;;;;;;4430493;28;657789;-71
2024/01/23 03:33:16;;;;;;;18.80;8.17;;;2.00;99.90;;;;;;4412674;28;656763;-70
2024/01/23 03:36:04;;;;;;;10.63;4.30;;;2.00;99.90;;;;;;4432138;27;656716;-70
2024/01/23 03:38:51;;;;;;;27.43;13.20;;;2.00;99.90;;;;;;4436099;28;656605;-70
2024/01/23 03:41:38;;;;;;;26.73;12.80;;;2.00;99.90;;;;;;4445256;27;657905;-70
2024/01/23 03:44:25;;;;;;;25.40;10.52;;;2.00;99.90;;;;;;4448192;28;657477;-70
2024/01/23 03:47:13;;;;;;;27.83;14.10;;;1.90;99.90;;;;;;4437150;28;658226;-70
2024/01/23 03:50:02;;;;;;;19.63;10.00;;;1.90;99.90;;;;;;4455557;27;657672;-70
2024/01/23 03:52:49;;;;;;;17.10;8.13;;;2.00;99.90;;;;;;4433229;28;657435;-69
2024/01/23 03:55:36;;;;;;;15.43;6.20;;;1.90;99.90;;;;;;4452816;28;656531;-69
2024/01/23 03:58:23;;;;;;;14.03;6.03;;;1.90;99.90;;;;;;4426458;28;657084;-70
2024/01/23 04:01:10;;;;;;;34.77;15.80;;;1.90;99.90;;;;;;4445791;28;656821;-70
2024/01/23 04:03:57;;;;;;;31.67;15.23;;;1.90;99.90;;;;;;4421428;28;657726;-71
2024/01/23 04:06:46;;;;;;;19.63;7.80;;;1.90;99.90;;;;;;4437660;28;658577;-70
2024/01/23 04:09:33;;;;;;;31.50;15.67;;;1.90;99.90;;;;;;4421302;28;656523;-70
2024/01/23 04:12:20;;;;;;;28.83;14.80;;;1.80;99.90;;;;;;4448944;28;657956;-70
2024/01/23 04:15:08;;;;;;;20.83;8.60;;;1.90;99.90;;;;;;4429373;27;658016;-71
2024/01/23 04:17:56;;;;;;;33.33;16.83;;;1.90;99.90;;;;;;4440958;28;657253;-70
2024/01/23 04:20:43;;;;;;;26.80;13.50;;;1.90;99.90;;;;;;4431885;27;658116;-70
2024/01/23 04:23:32;;;;;;;41.87;17.47;;;1.90;99.90;;;;;;4453509;28;657670;-70
2024/01/23 04:26:19;;;;;;;39.23;18.23;;;1.90;99.90;;;;;;4418004;28;657931;-70
2024/01/23 04:29:06;;;;;;;78.90;19.90;;;1.80;99.90;;;;;;4452070;28;658599;-70
2024/01/23 04:31:54;;;;;;;34.13;16.90;;;1.80;99.90;;;;;;4428457;27;658083;-70
2024/01/23 04:34:41;;;;;;;37.90;17.33;;;1.90;99.90;;;;;;4454788;28;658079;-71
2024/01/23 04:37:28;;;;;;;26.53;12.30;;;1.80;99.90;;;;;;4426648;28;657299;-70
2024/01/23 04:40:17;;;;;;;36.53;16.97;;;1.90;99.90;;;;;;4446434;28;658216;-70
2024/01/23 04:43:04;;;;;;;14.80;5.43;;;1.80;99.90;;;;;;4420244;28;657872;-70
2024/01/23 04:45:51;;;;;;;38.97;17.77;;;1.90;99.90;;;;;;4448399;28;656815;-70
2024/01/23 04:48:38;;;;;;;37.67;17.13;;;1.90;99.90;;;;;;4441174;28;657932;-70
2024/01/23 04:51:25;;;;;;;21.90;9.88;;;1.90;99.90;;;;;;4451713;28;658329;-70
2024/01/23 04:54:13;;;;;;;28.53;12.47;;;1.90;99.90;;;;;;4433290;28;656223;-71
2024/01/23 04:57:02;;;;;;;25.20;11.27;;;1.90;99.90;;;;;;4436655;28;658529;-70
2024/01/23 04:59:50;;;;;;;44.65;18.77;;;2.00;99.90;;;;;;4437210;28;657649;-70
2024/01/23 05:02:37;;;;;;;24.87;9.53;;;1.90;99.90;;;;;;4460053;28;657084;-70
2024/01/23 05:05:25;;;;;;;43.47;19.10;;;1.90;99.90;;;;;;4438094;28;657616;-70
2024/01/23 05:08:15;;;;;;;29.40;13.23;;;1.90;99.90;;;;;;4432188;28;657360;-70
2024/01/23 05:11:03;;;;;;;33.90;15.80;;;1.90;99.90;;;;;;4446453;28;657919;-70
2024/01/23 05:13:52;;;;;;;43.20;20.07;;;2.00;99.90;;;;;;4438499;28;658239;-70
2024/01/23 05:16:39;;;;;;;41.30;20.00;;;2.00;99.90;;;;;;4431347;28;658464;-70
2024/01/23 05:19:26;;;;;;;38.67;18.43;;;1.90;99.90;;;;;;4461224;28;657511;-70
2024/01/23 05:22:14;;;;;;;39.70;17.60;;;1.90;99.90;;;;;;4438343;28;657558;-70
2024/01/23 05:25:01;;;;;;;38.43;18.37;;;1.90;99.90;;;;;;4447086;28;658204;-70
2024/01/23 05:27:48;;;;;;;36.90;13.63;;;1.90;99.90;;;;;;4437001;28;658199;-70
2024/01/23 05:30:36;;;;;;;40.77;18.60;;;2.00;99.90;;;;;;4458747;28;658404;-70
2024/01/23 05:33:24;;;;;;;40.10;17.80;;;1.90;99.90;;;;;;4428440;28;657919;-71
2024/01/23 05:36:11;;;;;;;39.90;18.57;;;1.90;99.90;;;;;;4453656;28;658187;-70
2024/01/23 05:38:58;;;;;;;20.53;8.87;;;1.80;99.90;;;;;;4437019;28;657719;-71
2024/01/23 05:41:45;;;;;;;36.33;18.13;;;1.90;99.90;;;;;;4454937;28;657303;-70
2024/01/23 05:44:33;;;;;;;37.27;18.10;;;1.90;99.90;;;;;;4437857;28;657629;-70
2024/01/23 05:47:21;;;;;;;44.83;20.37;;;1.90;99.90;;;;;;4445054;28;658454;-71
2024/01/23 05:50:09;;;;;;;33.20;13.67;;;1.80;99.90;;;;;;4423884;28;657560;-70
2024/01/23 05:52:56;;;;;;;42.50;19.53;;;1.80;99.90;;;;;;4445111;28;657797;-70
2024/01/23 05:55:43;;;;;;;33.33;14.68;;;1.90;99.90;;;;;;4433650;28;657327;-70
2024/01/23 05:58:31;;;;;;;40.77;18.87;;;1.80;99.90;;;;;;4452831;28;658980;-70
2024/01/23 06:01:18;;;;;;;34.93;17.73;;;1.80;99.90;;;;;;4415181;28;657532;-71
2024/01/23 06:04:08;;;;;;;32.90;15.77;;;1.80;99.90;;;;;;4454022;28;659262;-70
2024/01/23 06:06:55;;;;;;;16.20;7.63;;;1.80;99.90;;;;;;4414443;28;658438;-70
2024/01/23 06:09:43;;;;;;;38.88;16.95;;;1.80;99.90;;;;;;4428831;28;656954;-71
2024/01/23 06:12:30;;;;;;;45.20;19.50;;;1.70;99.90;;;;;;4463318;27;658559;-70
2024/01/23 06:15:18;;;;;;;23.43;10.50;;;1.70;99.90;;;;;;4432604;27;657477;-70
2024/01/23 06:18:07;;;;;;;40.57;18.77;;;1.70;99.90;;;;;;4452142;27;658929;-71
2024/01/23 06:20:57;;;;;;;37.57;18.03;;;1.60;99.90;;;;;;4431604;28;658914;-69
2024/01/23 06:23:44;;;;;;;36.03;16.95;;;1.70;99.90;;;;;;4426172;27;657760;-70
2024/01/23 06:26:32;;;;;;;36.33;17.20;;;1.60;99.90;;;;;;4447110;27;657839;-69
2024/01/23 06:29:19;;;;;;;26.27;12.00;;;1.70;99.90;;;;;;4426348;27;657714;-69
2024/01/23 06:32:07;;;;;;;37.47;18.20;;;1.60;99.90;;;;;;4467231;27;657113;-69
2024/01/23 06:34:54;;;;;;;42.30;18.00;;;1.60;99.90;;;;;;4437631;27;658127;-68
2024/01/23 06:37:42;;;;;;;40.00;18.37;;;1.60;99.90;;;;;;4447244;27;657503;-69
2024/01/23 06:40:30;;;;;;;40.03;16.67;;;1.60;99.90;;;;;;4428995;28;658148;-69
2024/01/23 06:43:17;;;;;;;42.57;19.87;;;1.70;99.90;;;;;;4442729;28;657209;-68
2024/01/23 06:46:04;;;;;;;42.93;19.67;;;1.60;99.90;;;;;;4436935;28;658429;-69
2024/01/23 06:48:51;;;;;;;28.20;12.30;;;1.60;99.90;;;;;;4461535;28;657556;-69
2024/01/23 06:51:39;;;;;;;43.93;20.77;;;1.60;99.90;;;;;;4425767;28;657318;-69
2024/01/23 06:54:27;;;;;;;39.33;18.63;;;1.50;99.90;;;;;;4463266;28;658775;-69
2024/01/23 06:57:15;;;;;;;39.83;20.07;;;1.60;99.90;;;;;;4428624;28;657548;-68
2024/01/23 07:00:03;;;;;;;46.00;19.70;;;1.60;99.90;;;;;;4449118;28;657817;-70
2024/01/23 07:02:50;;;;;;;38.87;19.87;;;1.60;99.90;;;;;;4439738;28;658143;-68
2024/01/23 07:05:37;;;;;;;36.50;17.13;;;1.60;99.90;;;;;;4439334;28;657621;-69
2024/01/23 07:08:25;;;;;;;34.10;16.00;;;1.70;99.90;;;;;;4444089;28;658658;-69
2024/01/23 07:11:14;;;;;;;39.93;18.93;;;1.70;99.90;;;;;;4452614;28;657795;-69
2024/01/23 07:14:01;;;;;;;37.27;18.27;;;1.70;99.90;;;;;;4458126;28;657372;-68
2024/01/23 07:16:48;;;;;;;27.20;13.63;;;1.70;99.90;;;;;;4428146;28;657714;-69
2024/01/23 07:19:35;;;;;;;38.87;19.40;;;1.80;99.90;;;;;;4455901;28;658127;-69
2024/01/23 07:22:22;;;;;;;39.53;17.13;;;1.90;99.90;;;;;;4436783;28;657251;-69
2024/01/23 07:25:10;;;;;;;38.27;18.10;;;2.00;99.90;;;;;;4444774;28;658422;-69
2024/01/23 07:27:59;;;;;;;38.80;16.63;;;2.10;99.90;;;;;;4451727;28;657962;-69
2024/01/23 07:30:46;;;;;;;35.93;15.97;;;2.20;99.90;;;;;;4457460;28;658118;-69
2024/01/23 07:33:34;;;;;;;39.00;18.33;;;2.20;99.90;;;;;;4438480;27;657718;-69
2024/01/23 07:36:22;;;;;;;31.00;13.93;;;2.30;99.90;;;;;;4457074;27;657268;-69
2024/01/23 07:39:09;;;;;;;35.73;15.87;;;2.30;99.90;;;;;;4412417;28;658046;-68
2024/01/23 07:41:56;;;;;;;29.90;13.90;;;2.40;99.90;;;;;;4444572;28;658043;-68
2024/01/23 07:44:46;;;;;;;41.88;10.80;;;2.40;99.90;;;;;;4432795;27;657953;-68
2024/01/23 07:47:34;;;;;;;32.95;16.85;;;2.40;99.90;;;;;;4425573;28;657729;-69
2024/01/23 07:50:21;;;;;;;38.93;16.33;;;2.40;99.90;;;;;;4454039;28;658036;-68
2024/01/23 07:53:08;;;;;;;42.60;16.87;;;2.40;99.90;;;;;;4434870;28;657672;-69
2024/01/23 07:55:55;;;;;;;27.77;13.40;;;2.30;99.90;;;;;;4462824;27;657962;-68
2024/01/23 07:58:42;;;;;;;38.73;14.77;;;2.30;99.90;;;;;;4424890;28;657661;-69
2024/01/23 08:01:31;;;;;;;21.60;11.30;;;2.30;99.90;;;;;;4436757;28;657360;-69
2024/01/23 08:04:18;;;;;;;17.13;7.67;;;2.30;99.90;;;;;;4437826;28;658090;-68
2024/01/23 08:07:05;;;;;;;40.23;18.47;;;2.40;99.90;;;;;;4459153;28;657145;-69
2024/01/23 08:09:53;;;;;;;28.07;12.63;;;2.30;99.90;;;;;;4431785;28;657836;-69
2024/01/23 08:12:40;;;;;;;37.10;16.93;;;2.40;99.90;;;;;;4458327;28;658773;-69
2024/01/23 08:15:27;;;;;;;26.97;11.67;;;2.50;99.90;;;;;;4451559;28;657458;-69
2024/01/23 08:18:17;;;;;;;37.30;16.67;;;2.60;99.90;;;;;;4450438;28;658625;-68
2024/01/23 08:21:05;;;;;;;20.40;3.57;;;2.60;99.90;;;;;;4432222;28;657927;-68
2024/01/23 08:23:52;;;;;;;35.40;15.63;;;2.60;99.90;;;;;;4441048;28;656473;-69
2024/01/23 08:26:40;;;;;;;10.03;4.57;;;2.70;99.90;;;;;;4448421;28;658469;-69
2024/01/23 08:29:27;;;;;;;20.70;7.03;;;2.70;99.90;;;;;;4452039;28;656606;-69
2024/01/23 08:32:14;;;;;;;37.37;17.17;;;2.70;99.90;;;;;;4435697;28;657051;-69
2024/01/23 08:35:03;;;;;;;12.23;4.80;;;2.70;99.90;;;;;;4455483;28;658085;-69
2024/01/23 08:37:50;;;;;;;42.30;17.17;;;2.80;99.90;;;;;;4430356;28;657423;-69
2024/01/23 08:40:38;;;;;;;35.63;16.20;;;2.70;99.90;;;;;;4440120;28;657646;-69
2024/01/23 08:43:25;;;;;;;32.47;15.10;;;2.80;99.90;;;;;;4455405;28;658067;-70
2024/01/23 08:46:14;;;;;;;30.37;13.20;;;2.90;99.90;;;;;;4434763;28;657769;-70
2024/01/23 08:49:01;;;;;;;37.07;14.63;;;2.90;99.90;;;;;;4451826;28;659331;-68
2024/01/23 08:51:49;;;;;;;30.87;13.67;;;2.80;99.90;;;;;;4436040;28;657792;-69
2024/01/23 08:54:37;;;;;;;17.80;7.47;;;2.80;99.90;;;;;;4456221;28;657644;-69
2024/01/23 08:57:25;;;;;;;25.70;11.70;;;2.80;99.90;;;;;;4438587;28;656633;-69
2024/01/23 09:00:13;;;;;;;9.73;4.77;;;2.90;99.90;;;;;;4459957;28;657613;-68
2024/01/23 09:03:00;;;;;;;14.20;6.70;;;3.00;99.90;;;;;;4432675;28;655865;-69
2024/01/23 09:05:48;;;;;;;12.95;6.00;;;3.10;99.90;;;;;;4434927;28;656932;-70
2024/01/23 09:08:36;;;;;;;20.60;8.87;;;3.10;99.90;;;;;;4461605;28;657575;-68
2024/01/23 09:11:24;;;;;;;18.47;8.40;;;3.20;99.90;;;;;;4430782;28;656607;-69
2024/01/23 09:14:11;;;;;;;30.73;12.27;;;3.20;99.90;;;;;;4452435;28;656679;-69
2024/01/23 09:16:58;;;;;;;28.33;12.83;;;3.30;99.90;;;;;;4422015;28;658363;-69
2024/01/23 09:19:45;;;;;;;20.57;10.63;;;3.40;99.90;;;;;;4455644;28;658043;-69
2024/01/23 09:22:32;;;;;;;30.17;14.23;;;3.40;99.90;;;;;;4443372;28;657606;-69
2024/01/23 09:25:21;;;;;;;14.57;4.20;;;3.40;99.90;;;;;;4457547;28;658262;-70
2024/01/23 09:28:08;;;;;;;19.57;8.07;;;3.50;99.90;;;;;;4433122;28;657166;-69
2024/01/23 09:30:55;;;;;;;9.33;4.80;;;3.60;99.90;;;;;;4458414;28;656291;-70
2024/01/23 09:33:43;;;;;;;12.75;4.13;;;3.50;99.90;;;;;;4432042;28;655954;-70
2024/01/23 09:36:30;;;;;;;19.77;9.43;;;3.50;99.90;;;;;;4443448;28;657362;-69
2024/01/23 09:39:17;;;;;;;20.87;7.60;;;3.60;99.90;;;;;;4456284;28;657075;-70
2024/01/23 09:42:06;;;;;;;19.00;9.07;;;3.50;99.90;;;;;;4455094;28;656559;-69
2024/01/23 09:44:54;;;;;;;22.27;8.77;;;3.40;99.90;;;;;;4437186;28;656783;-70
2024/01/23 09:47:41;;;;;;;24.73;10.67;;;3.40;99.90;;;;;;4457006;28;656363;-69
2024/01/23 09:50:28;;;;;;;18.98;6.97;;;3.40;99.90;;;;;;4428696;27;657230;-70
2024/01/23 09:53:15;;;;;;;25.00;11.63;;;3.30;99.90;;;;;;4446678;28;656944;-70
2024/01/23 09:56:03;;;;;;;14.77;7.47;;;3.20;99.90;;;;;;4430872;28;657643;-70
2024/01/23 09:58:51;;;;;;;27.27;11.57;;;3.30;99.90;;;;;;4451715;28;657557;-69
2024/01/23 10:01:39;;;;;;;25.63;9.57;;;3.20;99.90;;;;;;4439965;28;657731;-69
2024/01/23 10:04:26;;;;;;;28.43;12.57;;;3.30;99.90;;;;;;4464762;28;656701;-69
2024/01/23 10:07:13;;;;;;;18.53;7.47;;;3.20;99.90;;;;;;4433677;28;657684;-69
2024/01/23 10:10:05;;;;;;;27.47;11.93;;;3.30;99.90;;;;;;4456848;27;657149;-69
2024/01/23 10:12:52;;;;;;;28.43;12.37;;;3.30;99.90;;;;;;4452453;27;657488;-70
2024/01/23 10:15:41;;;;;;;28.20;12.43;;;3.30;99.90;;;;;;4448954;28;659061;-70
2024/01/23 10:18:28;;;;;;;34.77;14.47;;;3.30;99.90;;;;;;4434943;28;658093;-70
2024/01/23 10:21:17;;;;;;;30.83;13.47;;;3.30;99.90;;;;;;4462458;27;658927;-70
2024/01/23 10:24:04;;;;;;;28.20;11.97;;;3.30;99.90;;;;;;4429843;28;657716;-70
2024/01/23 10:26:52;;;;;;;32.00;12.73;;;3.30;99.90;;;;;;4454661;28;657719;-70
2024/01/23 10:29:39;;;;;;;30.70;13.30;;;3.30;99.90;;;;;;4437086;28;657361;-70
2024/01/23 10:32:29;;;;;;;33.47;14.00;;;3.30;99.90;;;;;;4441553;28;658414;-70
2024/01/23 10:35:16;;;;;;;29.23;12.50;;;3.30;99.90;;;;;;4412853;28;657360;-69
2024/01/23 10:38:05;;;;;;;26.00;10.53;;;3.30;99.90;;;;;;4437442;28;658045;-69
2024/01/23 10:40:53;;;;;;;28.58;11.77;;;3.20;99.90;;;;;;4431698;28;657761;-70
2024/01/23 10:43:41;;;;;;;29.93;13.73;;;3.00;99.90;;;;;;4446202;28;658171;-69
2024/01/23 10:46:28;;;;;;;34.33;13.77;;;2.90;99.90;;;;;;4441453;27;658098;-69
2024/01/23 10:49:18;;;;;;;18.80;8.50;;;2.80;99.90;;;;;;4453351;28;659145;-69
2024/01/23 10:52:06;;;;;;;37.43;14.33;;;2.80;99.90;;;;;;4439330;27;657615;-69
2024/01/23 10:54:56;;;;;;;26.87;9.17;;;2.80;99.90;;;;;;4439983;28;657470;-69
2024/01/23 10:57:46;;;;;;;38.93;15.17;;;2.90;99.90;;;;;;4426402;28;657378;-70
2024/01/23 11:00:33;;;;;;;21.20;9.93;;;2.80;99.90;;;;;;4428277;28;657539;-70
2024/01/23 11:03:20;;;;;;;39.03;18.63;;;2.90;99.90;;;;;;4452534;28;656822;-69
2024/01/23 11:06:13;;;;;;;37.23;16.50;;;2.80;99.90;;;;;;4435594;28;658068;-70
2024/01/23 11:09:03;;;;;;;45.70;17.20;;;2.80;99.90;;;;;;4431908;28;658179;-70
2024/01/23 11:11:55;;;;;;;44.03;18.33;;;2.80;99.90;;;;;;4430967;28;658283;-70
2024/01/23 11:14:44;;;;;;;41.80;18.17;;;3.00;99.90;;;;;;4419457;27;658091;-70
2024/01/23 11:17:33;;;;;;;48.60;19.20;;;2.90;99.90;;;;;;4452134;28;658109;-69
2024/01/23 11:20:20;;;;;;;34.60;13.13;;;2.80;99.90;;;;;;4421905;28;658950;-69
2024/01/23 11:23:15;;;;;;;43.60;20.27;;;2.90;99.90;;;;;;4442816;28;657615;-70
2024/01/23 11:26:04;;;;;;;46.77;19.30;;;2.80;99.90;;;;;;4401284;28;657694;-70
2024/01/23 11:28:52;;;;;;;43.10;18.67;;;2.80;99.90;;;;;;4450593;28;657961;-69
2024/01/23 11:31:40;;;;;;;47.87;24.07;;;2.90;99.90;;;;;;4418498;28;658800;-70
2024/01/23 11:34:40;;;;;;;43.27;18.17;;;2.80;99.90;;;;;;4448688;28;657675;-69
2024/01/23 11:37:41;;;;;;;43.83;17.67;;;2.70;99.90;;;;;;4413927;28;658324;-70
2024/01/23 11:40:35;;;;;;;46.77;19.20;;;2.80;99.90;;;;;;4408200;28;658695;-69
2024/01/23 11:43:24;;;;;;;41.83;17.63;;;2.90;99.90;;;;;;4408816;28;658009;-69
2024/01/23 11:46:14;;;;;;;40.00;15.23;;;2.80;99.90;;;;;;4436716;28;657611;-70
2024/01/23 11:49:01;;;;;;;37.67;16.70;;;2.80;99.90;;;;;;4418339;28;657859;-69
2024/01/23 11:51:48;;;;;;;39.40;17.63;;;2.80;99.90;;;;;;4422641;28;657510;-69
2024/01/23 11:54:37;;;;;;;41.97;16.50;;;2.80;99.90;;;;;;4438437;28;658054;-69
2024/01/23 11:57:25;;;;;;;38.10;15.27;;;2.80;99.90;;;;;;4415425;28;657554;-69
2024/01/23 12:00:14;;;;;;;40.80;17.10;;;2.80;99.90;;;;;;4422571;28;657550;-70
2024/01/23 12:03:01;;;;;;;46.43;18.27;;;2.70;99.90;;;;;;4441246;28;657536;-70
2024/01/23 12:05:48;;;;;;;17.87;5.40;;;2.90;99.90;;;;;;4420773;28;658212;-70
2024/01/23 12:08:36;;;;;;;15.82;6.82;;;3.00;99.90;;;;;;4446274;28;658135;-70
2024/01/23 12:11:23;;;;;;;26.27;10.10;;;3.00;99.90;;;;;;4424870;28;656650;-70
2024/01/23 12:14:11;;;;;;;42.77;20.27;;;3.00;99.90;;;;;;4437947;28;658697;-69
2024/01/23 12:17:04;;;;;;;48.28;19.88;;;3.00;99.90;;;;;;4422517;28;657667;-70
2024/01/23 12:19:51;;;;;;;41.00;17.17;;;2.90;99.90;;;;;;4416220;28;657628;-68
2024/01/23 12:22:38;;;;;;;40.37;18.33;;;3.00;99.90;;;;;;4414191;28;658244;-69
2024/01/23 12:25:25;;;;;;;42.33;18.57;;;3.00;99.90;;;;;;4440734;28;657705;-68
2024/01/23 12:28:13;;;;;;;33.53;13.80;;;3.20;99.90;;;;;;4420436;28;657427;-69
2024/01/23 12:31:01;;;;;;;40.57;17.17;;;3.30;99.90;;;;;;4438196;28;659073;-69
2024/01/23 12:33:48;;;;;;;45.67;17.87;;;3.20;99.90;;;;;;4420514;28;658302;-69
2024/01/23 12:36:37;;;;;;;42.47;18.50;;;3.50;99.90;;;;;;4428045;28;657841;-69
2024/01/23 12:39:25;;;;;;;35.93;16.73;;;3.60;99.90;;;;;;4424675;28;657894;-69
2024/01/23 12:42:12;;;;;;;42.60;18.30;;;3.70;99.90;;;;;;4437139;28;658407;-69
2024/01/23 12:44:59;;;;;;;36.13;15.93;;;3.60;99.90;;;;;;4420163;28;658190;-69
2024/01/23 12:47:49;;;;;;;40.50;16.80;;;3.70;99.90;;;;;;4423955;28;657739;-69
2024/01/23 12:50:36;;;;;;;35.20;14.60;;;3.80;99.90;;;;;;4397494;28;657508;-69
2024/01/23 12:53:24;;;;;;;39.27;18.10;;;3.60;99.90;;;;;;4412087;28;659362;-69
2024/01/23 12:56:11;;;;;;;43.37;16.87;;;3.60;99.90;;;;;;4429138;28;657507;-70
2024/01/23 12:58:59;;;;;;;34.40;15.07;;;3.60;99.90;;;;;;4415792;28;657588;-69
2024/01/23 13:01:46;;;;;;;36.03;16.00;;;3.60;99.90;;;;;;4422198;28;657468;-69
2024/01/23 13:04:34;;;;;;;36.83;16.60;;;3.60;99.90;;;;;;4412058;28;657443;-69
2024/01/23 13:07:22;;;;;;;36.87;16.67;;;3.50;99.90;;;;;;4429601;28;658080;-69
2024/01/23 13:10:09;;;;;;;39.40;16.53;;;3.60;99.90;;;;;;4391809;28;657826;-69
2024/01/23 13:12:56;;;;;;;40.30;18.87;;;3.70;99.90;;;;;;4442235;28;657877;-69
2024/01/23 13:15:43;;;;;;;26.60;10.33;;;3.70;99.90;;;;;;4422337;28;657528;-69
2024/01/23 13:18:30;;;;;;;40.60;17.03;;;3.80;99.90;;;;;;4435914;28;658386;-70
2024/01/23 13:21:19;;;;;;;35.63;15.53;;;3.70;99.90;;;;;;4405132;28;657281;-70
2024/01/23 13:24:07;;;;;;;28.87;11.83;;;3.60;99.90;;;;;;4429166;28;657836;-69
2024/01/23 13:26:54;;;;;;;36.43;15.60;;;3.70;99.90;;;;;;4418160;28;657815;-69
2024/01/23 13:29:41;;;;;;;33.23;16.20;;;3.50;99.90;;;;;;4427380;28;658089;-69
2024/01/23 13:32:29;;;;;;;33.83;16.00;;;3.60;99.90;;;;;;4413852;28;658140;-69
2024/01/23 13:35:17;;;;;;;29.77;12.57;;;3.60;99.90;;;;;;4441619;28;658090;-69
2024/01/23 13:38:06;;;;;;;28.50;12.30;;;3.60;99.90;;;;;;4410073;28;658802;-69
2024/01/23 13:40:54;;;;;;;33.00;13.33;;;3.70;99.90;;;;;;4410519;28;658048;-69
2024/01/23 13:43:41;;;;;;;27.37;12.20;;;3.70;99.90;;;;;;4431631;28;658516;-69
2024/01/23 13:46:28;;;;;;;30.83;14.50;;;3.70;99.90;;;;;;4416864;28;658598;-69
2024/01/23 13:49:15;;;;;;;14.17;6.70;;;3.70;99.90;;;;;;4432858;28;657968;-69
2024/01/23 13:52:03;;;;;;;10.43;4.63;;;3.60;99.90;;;;;;4405997;28;656506;-69
2024/01/23 13:54:52;;;;;;;23.73;10.73;;;3.60;99.90;;;;;;4435777;28;656721;-69
2024/01/23 13:57:39;;;;;;;29.60;11.30;;;3.60;99.90;;;;;;4407364;28;657676;-69
2024/01/23 14:00:27;;;;;;;30.73;13.77;;;3.60;99.90;;;;;;4428717;28;657844;-69
2024/01/23 14:03:14;;;;;;;28.43;12.73;;;3.50;99.90;;;;;;4418233;28;657313;-69
2024/01/23 14:06:02;;;;;;;24.10;9.53;;;3.50;99.90;;;;;;4430168;28;657684;-69
2024/01/23 14:08:50;;;;;;;25.67;11.43;;;3.50;99.90;;;;;;4422776;28;657074;-70
2024/01/23 14:11:39;;;;;;;27.23;12.33;;;3.40;99.90;;;;;;4419547;28;657821;-70